Ana Sayfa
METAR-TAF:

METAR-TAF

Havaalanları :

Kuveyt, Kuveyt

Enlem: 29-13N, Boylam: 047-59E, yükseklik: 55 m

Güncel hava durumu gözlemi

Rapor saat 16:00 UTC de 41 dakika önce yapıldı.
Rüzgar güney/güneydoğudan 9 kt
Sıcaklık 34°C
Nem 20%
Basınç 1007 hPa
Görüş mesafesi 10 km veya daha fazla
1500 m altında bulut yok ve kümülonimbus yok

METAR: OKBK 211600Z 16009KT CAVOK 34/08 Q1007 NOSIG

Saat: 19:41 (16:41 UTC)

Tahmin

Rapor saat 10:45 UTC de 5 saat ve 56 dakika önce yapıldı.
Ayın 21'si saat 12 UTC'den ayın 22'si saat 18 UTC'ye kadar geçerli Tahmin
Rüzgar güney/güneydoğudan 12 kt
Görüş mesafesi: 7000 m
Açık gökyüzü

TAF: OKBK 211045Z 2112/2218 16012KT 7000 SKC

4.000'den fazla havaalanı için hava durumu gözlemleri ve tahminleri (METAR ve TAF raporları).

Kullanılabilir istasyonlar harita üzerinde sarı ve kırmızı noktalarla gösterilir.

İstasyonun adını görmek için fareyi noktanın üzerinde gezdirin.

Sonrasında hava gözlem ve tahminlerini görmek için tıklayın.

Haritayı değiştirmek için: yaklaştırmak için siyah artı işaretli yeşil düğmeye ve uzaklaştırmak için de eksi işaretli düğmeye hızla tıklayın; bitişik haritalar için yeşil okları kullanın.


METAR-TAF: